BAW87 EGLL-CYVR
Flight info
| Callsign | BAW87 |
|---|---|
| Flight time | N/A |
| Altitude | 40000 |
| Route | ULTIB1J ULTIB T420 TNT UL28 RODOL UM65 TENSO L603 BELOX DCT REMSI DCT GOMUP/M084F390 NATA LIBOR/M084F400 DCT GRIBS/N0494F400 DCT FEDDY DCT TAGIS DCT PIBRO DCT YEK DCT YSF DCT YMM/N0492F430 J527 YZU DCT BOOTH LIONN4 |
| Aircraft | B788/H-SADE1E2E3FGHIJ1J3J4J5J6LM1M2OP2RWXYZ/LB1D1G1 |
Departure
| Time | N/A |
|---|---|
| Airport | London Heathrow Airport (EGLL) |
Arrival
| Time | 2026-05-07 22:18 |
|---|---|
| Airport | Vancouver International Airport (CYVR) |
| Time | Latitude | Longitude | Altitude | Speed | Heading |
|---|---|---|---|---|---|
| 2026-05-07 21:09 | 55.09797 | -114.12519 | 41910 ft | 486 kts | 230° |
| 2026-05-07 21:09 | 55.05107 | -114.21038 | 41919 ft | 486 kts | 230° |
| 2026-05-07 21:10 | 55.00426 | -114.29508 | 41920 ft | 484 kts | 230° |
| 2026-05-07 21:10 | 54.95751 | -114.37940 | 41918 ft | 483 kts | 230° |
| 2026-05-07 21:11 | 54.91081 | -114.46329 | 41922 ft | 483 kts | 230° |
| 2026-05-07 21:11 | 54.84054 | -114.58900 | 41923 ft | 485 kts | 230° |
| 2026-05-07 21:12 | 54.79357 | -114.67265 | 41919 ft | 483 kts | 230° |
| 2026-05-07 21:12 | 54.74693 | -114.75543 | 41924 ft | 483 kts | 230° |
| 2026-05-07 21:13 | 54.69986 | -114.83865 | 41925 ft | 483 kts | 230° |
| 2026-05-07 21:13 | 54.65284 | -114.92152 | 41925 ft | 483 kts | 230° |
| 2026-05-07 21:14 | 54.60567 | -115.00434 | 41917 ft | 483 kts | 230° |
| 2026-05-07 21:14 | 54.55853 | -115.08684 | 41927 ft | 484 kts | 230° |
| 2026-05-07 21:15 | 54.51122 | -115.16933 | 41927 ft | 484 kts | 230° |
| 2026-05-07 21:15 | 54.46409 | -115.25122 | 41919 ft | 484 kts | 230° |
| 2026-05-07 21:16 | 54.41653 | -115.33358 | 41915 ft | 485 kts | 230° |
| 2026-05-07 21:16 | 54.36900 | -115.41558 | 41932 ft | 484 kts | 230° |
| 2026-05-07 21:17 | 54.32148 | -115.49731 | 41926 ft | 484 kts | 230° |
| 2026-05-07 21:17 | 54.28189 | -115.56515 | 41932 ft | 484 kts | 230° |
| 2026-05-07 21:18 | 54.23424 | -115.64657 | 41920 ft | 483 kts | 230° |
| 2026-05-07 21:18 | 54.17882 | -115.74085 | 41900 ft | 482 kts | 230° |
| 2026-05-07 21:19 | 54.13907 | -115.80749 | 41928 ft | 478 kts | 226° |
| 2026-05-07 21:19 | 54.09004 | -115.88354 | 41929 ft | 480 kts | 227° |
| 2026-05-07 21:20 | 54.04058 | -115.96026 | 41934 ft | 481 kts | 227° |
| 2026-05-07 21:20 | 53.99100 | -116.03663 | 41933 ft | 480 kts | 227° |
| 2026-05-07 21:21 | 53.94153 | -116.11281 | 41928 ft | 480 kts | 227° |
| 2026-05-07 21:21 | 53.89197 | -116.18870 | 41930 ft | 480 kts | 227° |
| 2026-05-07 21:22 | 53.84234 | -116.26457 | 41933 ft | 480 kts | 227° |
| 2026-05-07 21:22 | 53.79263 | -116.34022 | 41939 ft | 480 kts | 227° |
| 2026-05-07 21:23 | 53.74284 | -116.41579 | 41930 ft | 480 kts | 227° |
| 2026-05-07 21:23 | 53.69341 | -116.49054 | 41929 ft | 480 kts | 227° |
| 2026-05-07 21:24 | 53.64363 | -116.56559 | 41928 ft | 480 kts | 227° |
| 2026-05-07 21:24 | 53.59381 | -116.64045 | 41928 ft | 479 kts | 227° |
| 2026-05-07 21:25 | 53.54401 | -116.71503 | 41933 ft | 479 kts | 227° |
| 2026-05-07 21:25 | 53.49404 | -116.78963 | 41940 ft | 481 kts | 227° |
| 2026-05-07 21:26 | 53.44404 | -116.86400 | 41947 ft | 480 kts | 227° |
| 2026-05-07 21:26 | 53.39400 | -116.93823 | 41956 ft | 480 kts | 227° |
| 2026-05-07 21:27 | 53.34387 | -117.01231 | 41958 ft | 481 kts | 227° |
| 2026-05-07 21:27 | 53.29398 | -117.08580 | 41958 ft | 480 kts | 227° |
| 2026-05-07 21:28 | 53.24384 | -117.15942 | 41956 ft | 477 kts | 227° |
| 2026-05-07 21:28 | 53.19390 | -117.23255 | 41953 ft | 477 kts | 227° |
| 2026-05-07 21:29 | 53.14427 | -117.30496 | 41960 ft | 477 kts | 227° |
| 2026-05-07 21:29 | 53.09416 | -117.37784 | 41970 ft | 478 kts | 227° |
| 2026-05-07 21:30 | 53.04401 | -117.45053 | 41956 ft | 478 kts | 227° |
| 2026-05-07 21:30 | 52.99413 | -117.52257 | 41985 ft | 474 kts | 227° |
| 2026-05-07 21:31 | 52.94425 | -117.59449 | 41989 ft | 473 kts | 227° |
| 2026-05-07 21:31 | 52.89427 | -117.66624 | 41995 ft | 477 kts | 227° |
| 2026-05-07 21:32 | 52.84413 | -117.73800 | 41994 ft | 476 kts | 227° |
| 2026-05-07 21:32 | 52.79403 | -117.80947 | 41981 ft | 473 kts | 227° |
| 2026-05-07 21:33 | 52.74454 | -117.87989 | 41995 ft | 473 kts | 227° |
| 2026-05-07 21:33 | 52.69460 | -117.95070 | 41993 ft | 473 kts | 227° |
| 2026-05-07 21:34 | 52.64457 | -118.02142 | 42003 ft | 475 kts | 227° |
| 2026-05-07 21:34 | 52.59467 | -118.09163 | 41972 ft | 469 kts | 227° |
| 2026-05-07 21:35 | 52.54484 | -118.16182 | 42018 ft | 473 kts | 227° |
| 2026-05-07 21:35 | 52.49473 | -118.23184 | 42016 ft | 475 kts | 227° |
| 2026-05-07 21:36 | 52.44463 | -118.30185 | 42018 ft | 472 kts | 227° |
| 2026-05-07 21:36 | 52.39482 | -118.37115 | 42017 ft | 473 kts | 227° |
| 2026-05-07 21:37 | 52.34471 | -118.44066 | 42016 ft | 471 kts | 227° |
| 2026-05-07 21:37 | 52.29477 | -118.50977 | 42022 ft | 472 kts | 227° |
| 2026-05-07 21:38 | 52.24413 | -118.57964 | 41996 ft | 481 kts | 227° |
| 2026-05-07 21:38 | 52.19246 | -118.65066 | 42027 ft | 489 kts | 227° |
| 2026-05-07 21:39 | 52.13995 | -118.72256 | 42012 ft | 493 kts | 227° |
| 2026-05-07 21:39 | 52.08760 | -118.79411 | 42031 ft | 493 kts | 226° |
| 2026-05-07 21:40 | 52.03502 | -118.86566 | 42032 ft | 494 kts | 227° |
| 2026-05-07 21:40 | 51.98229 | -118.93723 | 42031 ft | 494 kts | 226° |
| 2026-05-07 21:41 | 51.92991 | -119.00811 | 42031 ft | 494 kts | 227° |
| 2026-05-07 21:41 | 51.87695 | -119.07954 | 42012 ft | 495 kts | 226° |
| 2026-05-07 21:42 | 51.82406 | -119.15065 | 42024 ft | 495 kts | 226° |
| 2026-05-07 21:42 | 51.77094 | -119.22185 | 42033 ft | 497 kts | 226° |
| 2026-05-07 21:43 | 51.71775 | -119.29285 | 42027 ft | 495 kts | 226° |
| 2026-05-07 21:43 | 51.66507 | -119.36307 | 42016 ft | 495 kts | 226° |
| 2026-05-07 21:44 | 51.61192 | -119.43360 | 42014 ft | 495 kts | 226° |
| 2026-05-07 21:44 | 51.55873 | -119.50402 | 42008 ft | 495 kts | 226° |
| 2026-05-07 21:45 | 51.50552 | -119.57418 | 42008 ft | 494 kts | 226° |
| 2026-05-07 21:45 | 51.45232 | -119.64421 | 42009 ft | 495 kts | 226° |
| 2026-05-07 21:46 | 51.39894 | -119.71415 | 42002 ft | 495 kts | 226° |
| 2026-05-07 21:46 | 51.34546 | -119.78407 | 42005 ft | 496 kts | 226° |
| 2026-05-07 21:47 | 51.29200 | -119.85370 | 42001 ft | 494 kts | 226° |
| 2026-05-07 21:47 | 51.23869 | -119.92298 | 42003 ft | 493 kts | 225° |
| 2026-05-07 21:48 | 51.18542 | -119.99195 | 42002 ft | 494 kts | 225° |
| 2026-05-07 21:48 | 51.13239 | -120.06042 | 42005 ft | 494 kts | 225° |
| 2026-05-07 21:49 | 51.07900 | -120.12913 | 41999 ft | 493 kts | 225° |
| 2026-05-07 21:49 | 51.02560 | -120.19766 | 41988 ft | 492 kts | 225° |
| 2026-05-07 21:50 | 50.97228 | -120.26585 | 41993 ft | 492 kts | 225° |
| 2026-05-07 21:50 | 50.91876 | -120.33413 | 41997 ft | 494 kts | 225° |
| 2026-05-07 21:51 | 50.86523 | -120.40215 | 41991 ft | 493 kts | 225° |
| 2026-05-07 21:51 | 50.81178 | -120.46994 | 41953 ft | 493 kts | 225° |
| 2026-05-07 21:52 | 50.75841 | -120.53736 | 41983 ft | 491 kts | 225° |
| 2026-05-07 21:52 | 50.70516 | -120.60447 | 41903 ft | 488 kts | 225° |
| 2026-05-07 21:53 | 50.65220 | -120.67098 | 41727 ft | 485 kts | 225° |
| 2026-05-07 21:53 | 50.59991 | -120.73650 | 41550 ft | 482 kts | 225° |
| 2026-05-07 21:54 | 50.57366 | -120.76930 | 41437 ft | 481 kts | 225° |
| 2026-05-07 21:54 | 50.54747 | -120.80198 | 41334 ft | 480 kts | 225° |
| 2026-05-07 21:54 | 50.52133 | -120.83456 | 41226 ft | 479 kts | 225° |
| 2026-05-07 21:54 | 50.49519 | -120.86710 | 40857 ft | 482 kts | 225° |
| 2026-05-07 21:55 | 50.46887 | -120.89983 | 40244 ft | 483 kts | 225° |
| 2026-05-07 21:55 | 50.44245 | -120.93257 | 39615 ft | 484 kts | 226° |
| 2026-05-07 21:55 | 50.41604 | -120.96527 | 38965 ft | 484 kts | 226° |
| 2026-05-07 21:55 | 50.38959 | -120.99802 | 38242 ft | 485 kts | 226° |
| 2026-05-07 21:56 | 50.36315 | -121.03068 | 37548 ft | 482 kts | 226° |
| 2026-05-07 21:56 | 50.33685 | -121.06309 | 36860 ft | 480 kts | 226° |
| 2026-05-07 21:56 | 50.31066 | -121.09536 | 36127 ft | 479 kts | 226° |
| 2026-05-07 21:56 | 50.28444 | -121.12765 | 35384 ft | 480 kts | 226° |
| 2026-05-07 21:57 | 50.25819 | -121.15988 | 34620 ft | 481 kts | 225° |
| 2026-05-07 21:57 | 50.23183 | -121.19221 | 33826 ft | 481 kts | 225° |
| 2026-05-07 21:57 | 50.20551 | -121.22442 | 33058 ft | 480 kts | 225° |
| 2026-05-07 21:57 | 50.17920 | -121.25658 | 32307 ft | 479 kts | 225° |
| 2026-05-07 21:58 | 50.15298 | -121.28860 | 31534 ft | 477 kts | 224° |
| 2026-05-07 21:58 | 50.12687 | -121.32046 | 30828 ft | 475 kts | 224° |
| 2026-05-07 21:58 | 50.10084 | -121.35217 | 30106 ft | 474 kts | 224° |
| 2026-05-07 21:58 | 50.07491 | -121.38366 | 29341 ft | 472 kts | 224° |
| 2026-05-07 21:59 | 50.04910 | -121.41499 | 28622 ft | 469 kts | 223° |
| 2026-05-07 21:59 | 50.02345 | -121.44609 | 27914 ft | 467 kts | 223° |
| 2026-05-07 21:59 | 49.99823 | -121.47664 | 27216 ft | 464 kts | 223° |
| 2026-05-07 21:59 | 49.97282 | -121.50737 | 26527 ft | 462 kts | 223° |
| 2026-05-07 22:00 | 49.94752 | -121.53791 | 25828 ft | 459 kts | 223° |
| 2026-05-07 22:00 | 49.92241 | -121.56822 | 25138 ft | 456 kts | 222° |
| 2026-05-07 22:00 | 49.89741 | -121.59829 | 24467 ft | 453 kts | 222° |
| 2026-05-07 22:00 | 49.87258 | -121.62815 | 23803 ft | 451 kts | 222° |
| 2026-05-07 22:01 | 49.84783 | -121.65789 | 23097 ft | 449 kts | 221° |
| 2026-05-07 22:01 | 49.82330 | -121.68729 | 22437 ft | 442 kts | 221° |
| 2026-05-07 22:01 | 49.79909 | -121.71631 | 21773 ft | 438 kts | 221° |
| 2026-05-07 22:01 | 49.77508 | -121.74504 | 21123 ft | 434 kts | 221° |
| 2026-05-07 22:02 | 49.75127 | -121.77346 | 20496 ft | 430 kts | 221° |
| 2026-05-07 22:02 | 49.72770 | -121.80159 | 19873 ft | 427 kts | 221° |
| 2026-05-07 22:02 | 49.70426 | -121.82957 | 19241 ft | 424 kts | 220° |
| 2026-05-07 22:02 | 49.68095 | -121.85731 | 18626 ft | 422 kts | 220° |
| 2026-05-07 22:03 | 49.65779 | -121.88480 | 17988 ft | 418 kts | 220° |
| 2026-05-07 22:03 | 49.63490 | -121.91202 | 17380 ft | 413 kts | 220° |
| 2026-05-07 22:03 | 49.61224 | -121.93887 | 16774 ft | 408 kts | 220° |
| 2026-05-07 22:03 | 49.58979 | -121.96544 | 16187 ft | 404 kts | 219° |
| 2026-05-07 22:04 | 49.56763 | -121.99168 | 15605 ft | 400 kts | 219° |
| 2026-05-07 22:04 | 49.54594 | -122.01731 | 15034 ft | 396 kts | 219° |
| 2026-05-07 22:04 | 49.52461 | -122.04370 | 14455 ft | 390 kts | 226° |
| 2026-05-07 22:04 | 49.50774 | -122.07578 | 13893 ft | 384 kts | 235° |
| 2026-05-07 22:05 | 49.49206 | -122.10873 | 13251 ft | 381 kts | 235° |
| 2026-05-07 22:05 | 49.47654 | -122.14160 | 12617 ft | 377 kts | 234° |
| 2026-05-07 22:05 | 49.46117 | -122.17394 | 12058 ft | 372 kts | 234° |
| 2026-05-07 22:05 | 49.44595 | -122.20576 | 11545 ft | 366 kts | 234° |
| 2026-05-07 22:06 | 49.43097 | -122.23709 | 11009 ft | 362 kts | 234° |
| 2026-05-07 22:06 | 49.42117 | -122.25760 | 10717 ft | 357 kts | 233° |
| 2026-05-07 22:06 | 49.40682 | -122.28763 | 10550 ft | 342 kts | 233° |
| 2026-05-07 22:06 | 49.39302 | -122.31646 | 10420 ft | 326 kts | 233° |
| 2026-05-07 22:07 | 49.37982 | -122.34397 | 10226 ft | 315 kts | 233° |
| 2026-05-07 22:07 | 49.36695 | -122.37078 | 9881 ft | 309 kts | 233° |
| 2026-05-07 22:07 | 49.35433 | -122.39705 | 9552 ft | 302 kts | 233° |
| 2026-05-07 22:07 | 49.34199 | -122.42271 | 9238 ft | 295 kts | 233° |
| 2026-05-07 22:08 | 49.32991 | -122.44781 | 8933 ft | 290 kts | 233° |
| 2026-05-07 22:08 | 49.31805 | -122.47243 | 8623 ft | 284 kts | 233° |
| 2026-05-07 22:08 | 49.30645 | -122.49648 | 8353 ft | 278 kts | 233° |
| 2026-05-07 22:08 | 49.29505 | -122.52009 | 8067 ft | 273 kts | 233° |
| 2026-05-07 22:09 | 49.28388 | -122.54323 | 7784 ft | 268 kts | 233° |
| 2026-05-07 22:09 | 49.27322 | -122.56528 | 7490 ft | 250 kts | 233° |
| 2026-05-07 22:09 | 49.26322 | -122.58594 | 7225 ft | 233 kts | 233° |
| 2026-05-07 22:09 | 49.25391 | -122.60522 | 6998 ft | 217 kts | 233° |
| 2026-05-07 22:10 | 49.24504 | -122.62348 | 6808 ft | 212 kts | 232° |
| 2026-05-07 22:10 | 49.23629 | -122.64150 | 6584 ft | 211 kts | 233° |
| 2026-05-07 22:10 | 49.22757 | -122.65945 | 6366 ft | 210 kts | 233° |
| 2026-05-07 22:10 | 49.21889 | -122.67734 | 6124 ft | 209 kts | 233° |
| 2026-05-07 22:11 | 49.21022 | -122.69519 | 5888 ft | 209 kts | 233° |
| 2026-05-07 22:11 | 49.20158 | -122.71295 | 5667 ft | 208 kts | 233° |
| 2026-05-07 22:11 | 49.19297 | -122.73065 | 5446 ft | 207 kts | 233° |
| 2026-05-07 22:11 | 49.18436 | -122.74833 | 5216 ft | 207 kts | 233° |
| 2026-05-07 22:12 | 49.17575 | -122.76599 | 4990 ft | 207 kts | 233° |
| 2026-05-07 22:12 | 49.16717 | -122.78366 | 4754 ft | 207 kts | 234° |
| 2026-05-07 22:12 | 49.16260 | -122.80409 | 4482 ft | 206 kts | 265° |
| 2026-05-07 22:12 | 49.16273 | -122.82565 | 4378 ft | 204 kts | 277° |
| 2026-05-07 22:13 | 49.16500 | -122.84653 | 4127 ft | 193 kts | 280° |
| 2026-05-07 22:13 | 49.16728 | -122.86652 | 3872 ft | 190 kts | 280° |
| 2026-05-07 22:13 | 49.16952 | -122.88617 | 3618 ft | 183 kts | 280° |
| 2026-05-07 22:13 | 49.17162 | -122.90467 | 3384 ft | 171 kts | 279° |
| 2026-05-07 22:14 | 49.17359 | -122.92196 | 3160 ft | 166 kts | 279° |
| 2026-05-07 22:14 | 49.17558 | -122.93942 | 2929 ft | 164 kts | 279° |
| 2026-05-07 22:14 | 49.17750 | -122.95622 | 2715 ft | 160 kts | 279° |
| 2026-05-07 22:14 | 49.17931 | -122.97248 | 2506 ft | 151 kts | 278° |
| 2026-05-07 22:15 | 49.18102 | -122.98781 | 2295 ft | 141 kts | 278° |
| 2026-05-07 22:15 | 49.18268 | -123.00221 | 2118 ft | 136 kts | 278° |
| 2026-05-07 22:15 | 49.18431 | -123.01642 | 1926 ft | 135 kts | 277° |
| 2026-05-07 22:15 | 49.18590 | -123.03056 | 1745 ft | 133 kts | 277° |
| 2026-05-07 22:16 | 49.18750 | -123.04448 | 1564 ft | 134 kts | 277° |
| 2026-05-07 22:16 | 49.18892 | -123.05851 | 1404 ft | 130 kts | 275° |
| 2026-05-07 22:16 | 49.19042 | -123.07252 | 1284 ft | 135 kts | 279° |
| 2026-05-07 22:16 | 49.19220 | -123.08663 | 1129 ft | 134 kts | 278° |
| 2026-05-07 22:17 | 49.19383 | -123.10147 | 952 ft | 147 kts | 278° |
| 2026-05-07 22:17 | 49.19555 | -123.11638 | 768 ft | 139 kts | 277° |
| 2026-05-07 22:17 | 49.19721 | -123.13063 | 508 ft | 136 kts | 276° |
| 2026-05-07 22:17 | 49.19877 | -123.14458 | 292 ft | 131 kts | 276° |
| 2026-05-07 22:18 | 49.20032 | -123.15808 | 103 ft | 129 kts | 276° |
| 2026-05-07 22:18 | 49.20324 | -123.18372 | 30 ft | 107 kts | 278° |
| 2026-05-07 22:18 | 49.20391 | -123.19130 | 27 ft | 46 kts | 266° |
| 2026-05-07 22:19 | 49.20311 | -123.19529 | 28 ft | 16 kts | 249° |
| 2026-05-07 22:19 | 49.20288 | -123.19600 | 29 ft | 2 kts | 206° |
| 2026-05-07 22:19 | 49.20262 | -123.19589 | 29 ft | 8 kts | 133° |
| 2026-05-07 22:19 | 49.20223 | -123.19410 | 29 ft | 24 kts | 100° |
| 2026-05-07 22:20 | 49.20194 | -123.19152 | 29 ft | 25 kts | 101° |
| 2026-05-07 22:20 | 49.20164 | -123.18893 | 29 ft | 25 kts | 99° |
| 2026-05-07 22:20 | 49.20137 | -123.18632 | 29 ft | 24 kts | 99° |
| 2026-05-07 22:20 | 49.20096 | -123.18504 | 29 ft | 7 kts | 171° |
| 2026-05-07 22:21 | 49.20054 | -123.18480 | 28 ft | 5 kts | 133° |
| 2026-05-07 22:21 | 49.20038 | -123.18406 | 29 ft | 13 kts | 101° |
| 2026-05-07 22:21 | 49.20017 | -123.18285 | 29 ft | 4 kts | 136° |
| 2026-05-07 22:21 | 49.19990 | -123.18274 | 29 ft | 4 kts | 180° |
| 2026-05-07 22:22 | 49.19963 | -123.18280 | 29 ft | 4 kts | 190° |
| 2026-05-07 22:22 | 49.19954 | -123.18283 | 29 ft | 0 kts | 189° |